Hawesville, Kentucky
Current Conditions -  °F | °C
As of 12:56 AM on Wednesday 22 Oct 2014 (Local Time) from KOWB Reporting Station
Light Rain Light Rain  
Wind Chill:   Ceiling: Unl
Heat Index:   Visibility: 6mi
Dew Point:   Wind: 6mph
Humidity: 77%   Direction: 30°NNE
Pressure: 30.18"   Gusts: NA
Location:  37.9°N, 86.75°W
Report Text: KOWB 220556Z AUTO 03005KT 6SM -RA CLR 09/06 A3018 RMK AO2 TSNO 50002 60000 T00940055 10138 20094 P0000 SLP219
Loading
Personal Weather Stations






























Interactive Weather Map
Tropical Storm Tracking
New forecast layout! Learn more

10-Day Weather Forecast

Advertisements
Track Severe Weather on mobile